Time;durP1;ratioP1;P1;durP2;ratioP2;P2;SDS_P1;SDS_P2;PMS_P1;PMS_P2;Temp;Humidity;BMP_temperature;BMP_pressure;BME280_temperature;BME280_humidity;BME280_pressure;Samples;Min_cycle;Max_cycle;Signal;HPM_P1;HPM_P2
2023/03/14 00:01:37;;;;;;;15.57;7.50;;;;;;;;;;4999155;28;20123;-58
2023/03/14 00:04:05;;;;;;;11.82;7.35;;;;;;;;;;4999200;28;20488;-58
2023/03/14 00:06:32;;;;;;;11.88;7.28;;;;;;;;;;4999060;28;20050;-58
2023/03/14 00:09:00;;;;;;;11.27;7.53;;;;;;;;;;4999168;28;20100;-58
2023/03/14 00:11:27;;;;;;;16.38;7.07;;;;;;;;;;4999012;28;20042;-59
2023/03/14 00:13:54;;;;;;;12.52;7.20;;;;;;;;;;4999213;28;20042;-58
2023/03/14 00:16:22;;;;;;;10.75;7.18;;;;;;;;;;4999017;28;20069;-58
2023/03/14 00:18:50;;;;;;;12.43;7.32;;;;;;;;;;4998959;28;20050;-58
2023/03/14 00:21:17;;;;;;;13.65;7.78;;;;;;;;;;4998707;28;20061;-58
2023/03/14 00:23:45;;;;;;;13.45;7.85;;;;;;;;;;4998495;28;20069;-58
2023/03/14 00:26:14;;;;;;;12.85;6.95;;;;;;;;;;5010555;28;20436;-58
2023/03/14 00:28:42;;;;;;;11.32;7.20;;;;;;;;;;4995836;28;20046;-58
2023/03/14 00:31:10;;;;;;;13.18;7.22;;;;;;;;;;4978431;28;20050;-58
2023/03/14 00:33:38;;;;;;;10.90;7.30;;;;;;;;;;4978358;28;20048;-58
2023/03/14 00:36:08;;;;;;;10.82;6.47;;;;;;;;;;4978355;28;20046;-58
2023/03/14 00:38:37;;;;;;;11.38;6.50;;;;;;;;;;4995890;28;20039;-58
2023/03/14 00:41:06;;;;;;;11.48;6.38;;;;;;;;;;4978327;28;20047;-58
2023/03/14 00:43:33;;;;;;;9.13;6.28;;;;;;;;;;4978235;28;20077;-58
2023/03/14 00:46:01;;;;;;;11.30;5.97;;;;;;;;;;4995854;28;20405;-58
2023/03/14 00:48:29;;;;;;;10.95;6.03;;;;;;;;;;4978085;28;20382;-58
2023/03/14 00:50:56;;;;;;;11.90;6.78;;;;;;;;;;4978061;28;20093;-58
2023/03/14 00:53:24;;;;;;;9.32;5.80;;;;;;;;;;4978057;28;20050;-58
2023/03/14 00:55:51;;;;;;;8.55;6.00;;;;;;;;;;4977840;28;20034;-58
2023/03/14 00:58:19;;;;;;;9.63;5.95;;;;;;;;;;4977829;28;20129;-58
2023/03/14 01:00:46;;;;;;;11.73;6.38;;;;;;;;;;4977715;28;20048;-58
2023/03/14 01:03:15;;;;;;;11.35;6.05;;;;;;;;;;4977564;28;20042;-58
2023/03/14 01:05:42;;;;;;;10.15;5.25;;;;;;;;;;4977332;28;20045;-58
2023/03/14 01:08:11;;;;;;;10.60;6.18;;;;;;;;;;4977681;28;20042;-58
2023/03/14 01:10:40;;;;;;;9.38;5.93;;;;;;;;;;4977634;28;20053;-58
2023/03/14 01:13:08;;;;;;;9.25;5.82;;;;;;;;;;4977748;28;20108;-58
2023/03/14 01:15:36;;;;;;;10.00;5.53;;;;;;;;;;4994990;28;20073;-58
2023/03/14 01:18:04;;;;;;;10.50;5.72;;;;;;;;;;4977391;28;20046;-58
2023/03/14 01:20:31;;;;;;;8.05;5.65;;;;;;;;;;4994736;28;20054;-58
2023/03/14 01:22:58;;;;;;;9.43;5.68;;;;;;;;;;4994817;28;20038;-59
2023/03/14 01:25:26;;;;;;;8.00;5.53;;;;;;;;;;4993321;28;20046;-59
2023/03/14 01:27:54;;;;;;;7.03;5.30;;;;;;;;;;4977289;28;20038;-59
2023/03/14 01:30:22;;;;;;;10.40;5.53;;;;;;;;;;4994647;28;20035;-58
2023/03/14 01:32:49;;;;;;;9.77;5.47;;;;;;;;;;4976883;28;20073;-58
2023/03/14 01:35:17;;;;;;;9.52;5.72;;;;;;;;;;4977016;28;20177;-59
2023/03/14 01:37:44;;;;;;;9.93;5.53;;;;;;;;;;4976202;28;20378;-59
2023/03/14 01:40:17;;;;;;;9.00;5.72;;;;;;;;;;4977079;28;20074;-58
2023/03/14 01:42:55;;;;;;;9.77;5.70;;;;;;;;;;4976866;28;20408;-58
2023/03/14 01:45:42;;;;;;;9.80;5.30;;;;;;;;;;5009229;28;20050;-58
2023/03/14 01:48:09;;;;;;;8.23;5.68;;;;;;;;;;4977044;28;20051;-58
2023/03/14 01:50:37;;;;;;;10.13;5.50;;;;;;;;;;4976886;28;20047;-58
2023/03/14 01:53:04;;;;;;;10.77;5.68;;;;;;;;;;4976846;28;20108;-58
2023/03/14 01:55:32;;;;;;;9.85;5.63;;;;;;;;;;4976834;28;20042;-59
2023/03/14 01:58:03;;;;;;;8.80;5.47;;;;;;;;;;4976710;28;20069;-59
2023/03/14 02:00:31;;;;;;;10.30;5.10;;;;;;;;;;4976650;28;20078;-59
2023/03/14 02:03:05;;;;;;;8.65;4.82;;;;;;;;;;4976819;28;20062;-59
2023/03/14 02:05:36;;;;;;;8.15;4.82;;;;;;;;;;4976524;28;20054;-59
2023/03/14 02:08:15;;;;;;;8.82;5.03;;;;;;;;;;4976363;28;20500;-59
2023/03/14 02:10:48;;;;;;;7.90;4.85;;;;;;;;;;4976467;28;20085;-59
2023/03/14 02:13:21;;;;;;;7.18;5.07;;;;;;;;;;4976366;28;20038;-59
2023/03/14 02:16:12;;;;;;;7.80;5.28;;;;;;;;;;4976344;28;20050;-59
2023/03/14 02:18:54;;;;;;;7.68;4.78;;;;;;;;;;4993803;28;20058;-59
2023/03/14 02:21:52;;;;;;;6.72;4.35;;;;;;;;;;5008892;28;20042;-58
2023/03/14 02:24:23;;;;;;;7.15;4.95;;;;;;;;;;4976178;28;20057;-59
2023/03/14 02:27:16;;;;;;;8.43;4.70;;;;;;;;;;4976183;28;20042;-58
2023/03/14 02:29:50;;;;;;;8.45;5.05;;;;;;;;;;4976294;28;20393;-59
2023/03/14 02:32:18;;;;;;;9.05;4.93;;;;;;;;;;4976208;28;20051;-59
2023/03/14 02:34:48;;;;;;;10.90;5.35;;;;;;;;;;4976251;28;20081;-59
2023/03/14 02:37:17;;;;;;;8.38;5.30;;;;;;;;;;4975858;28;20427;-58
2023/03/14 02:39:45;;;;;;;7.97;5.25;;;;;;;;;;4976122;28;20444;-59
2023/03/14 02:42:14;;;;;;;7.68;4.95;;;;;;;;;;4976106;28;20045;-59
2023/03/14 02:45:00;;;;;;;11.18;5.35;;;;;;;;;;4976030;28;20124;-59
2023/03/14 02:47:31;;;;;;;8.55;4.90;;;;;;;;;;4975618;28;20046;-58
2023/03/14 02:50:02;;;;;;;8.43;4.85;;;;;;;;;;4975821;28;20039;-59
2023/03/14 02:52:30;;;;;;;8.30;4.90;;;;;;;;;;4975789;28;20078;-59
2023/03/14 02:54:57;;;;;;;8.95;4.93;;;;;;;;;;4975780;28;20038;-59
2023/03/14 02:57:25;;;;;;;8.57;4.78;;;;;;;;;;4976118;28;20113;-59
2023/03/14 02:59:53;;;;;;;11.50;5.05;;;;;;;;;;4975650;28;20516;-58
2023/03/14 03:02:20;;;;;;;8.38;4.70;;;;;;;;;;4975750;28;20580;-58
2023/03/14 03:04:48;;;;;;;7.22;4.63;;;;;;;;;;4975555;28;20067;-58
2023/03/14 03:07:17;;;;;;;7.60;4.63;;;;;;;;;;4975565;28;20456;-58
2023/03/14 03:09:45;;;;;;;7.35;4.70;;;;;;;;;;4975793;28;20065;-58
2023/03/14 03:12:13;;;;;;;10.25;5.03;;;;;;;;;;4975739;28;20594;-58
2023/03/14 03:14:40;;;;;;;8.57;5.50;;;;;;;;;;4993279;28;20073;-58
2023/03/14 03:17:08;;;;;;;8.18;5.45;;;;;;;;;;4975586;28;20260;-57
2023/03/14 03:19:38;;;;;;;8.90;5.43;;;;;;;;;;4975468;28;20531;-57
2023/03/14 03:22:05;;;;;;;9.27;5.75;;;;;;;;;;4975667;28;20057;-58
2023/03/14 03:24:32;;;;;;;10.52;5.22;;;;;;;;;;4993134;28;20058;-58
2023/03/14 03:27:02;;;;;;;9.63;5.72;;;;;;;;;;4975465;28;20080;-58
2023/03/14 03:29:30;;;;;;;8.48;5.55;;;;;;;;;;4975628;28;20558;-58
2023/03/14 03:31:57;;;;;;;10.65;5.50;;;;;;;;;;4975581;28;20046;-57
2023/03/14 03:34:25;;;;;;;8.88;5.53;;;;;;;;;;5007879;28;20043;-58
2023/03/14 03:36:56;;;;;;;9.18;5.13;;;;;;;;;;4975494;28;20038;-59
2023/03/14 03:39:25;;;;;;;9.23;5.55;;;;;;;;;;4975246;28;20072;-58
2023/03/14 03:41:53;;;;;;;8.95;5.22;;;;;;;;;;4975420;28;20056;-58
2023/03/14 03:44:20;;;;;;;6.60;4.45;;;;;;;;;;4992835;28;20089;-57
2023/03/14 03:46:48;;;;;;;8.13;4.68;;;;;;;;;;4975334;28;20101;-58
2023/03/14 03:49:17;;;;;;;9.13;4.63;;;;;;;;;;4975230;28;20069;-58
2023/03/14 03:51:45;;;;;;;14.23;5.80;;;;;;;;;;4974801;28;20042;-57
2023/03/14 03:54:13;;;;;;;7.55;4.72;;;;;;;;;;4985486;28;20161;-58
2023/03/14 03:56:40;;;;;;;9.07;4.80;;;;;;;;;;4973145;28;20054;-58
2023/03/14 03:59:08;;;;;;;8.27;4.82;;;;;;;;;;4991395;28;20174;-58
2023/03/14 04:01:35;;;;;;;6.90;4.70;;;;;;;;;;4978788;28;20052;-58
2023/03/14 04:04:03;;;;;;;8.10;5.10;;;;;;;;;;4995143;28;20493;-58
2023/03/14 04:06:30;;;;;;;8.13;4.45;;;;;;;;;;4978558;28;20047;-58
2023/03/14 04:09:00;;;;;;;8.07;4.65;;;;;;;;;;4978666;28;20047;-58
2023/03/14 04:11:38;;;;;;;7.25;4.55;;;;;;;;;;4975433;28;20047;-58
2023/03/14 04:14:20;;;;;;;8.95;5.28;;;;;;;;;;4978641;28;20121;-58
2023/03/14 04:16:55;;;;;;;8.63;5.05;;;;;;;;;;4970349;28;20457;-59
2023/03/14 04:19:23;;;;;;;10.23;5.25;;;;;;;;;;4992775;28;20159;-58
2023/03/14 04:21:53;;;;;;;9.15;5.35;;;;;;;;;;4958902;28;20058;-58
2023/03/14 04:24:22;;;;;;;8.27;5.05;;;;;;;;;;4958805;28;20054;-58
2023/03/14 04:26:50;;;;;;;7.63;4.93;;;;;;;;;;4958994;28;20386;-58
2023/03/14 04:29:18;;;;;;;8.45;5.57;;;;;;;;;;4976039;28;20126;-58
2023/03/14 04:31:46;;;;;;;15.98;9.13;;;;;;;;;;4958405;28;20073;-58
2023/03/14 04:34:14;;;;;;;23.98;16.55;;;;;;;;;;4957209;28;20442;-58
2023/03/14 04:36:50;;;;;;;15.77;10.77;;;;;;;;;;4957449;28;20043;-58
2023/03/14 04:39:22;;;;;;;45.20;24.35;;;;;;;;;;4957994;28;20047;-58
2023/03/14 04:41:56;;;;;;;15.95;9.75;;;;;;;;;;4958211;28;20143;-59
2023/03/14 04:44:24;;;;;;;17.30;10.63;;;;;;;;;;4975745;28;20042;-58
2023/03/14 04:46:53;;;;;;;13.80;8.15;;;;;;;;;;4958322;28;20101;-58
2023/03/14 04:49:21;;;;;;;77.88;39.28;;;;;;;;;;4958622;28;20559;-59
2023/03/14 04:51:53;;;;;;;21.10;11.82;;;;;;;;;;4958718;28;20074;-59
2023/03/14 04:54:23;;;;;;;10.93;6.70;;;;;;;;;;4958735;28;20505;-59
2023/03/14 04:56:55;;;;;;;14.70;8.10;;;;;;;;;;4958767;28;20070;-59
2023/03/14 04:59:22;;;;;;;12.00;7.68;;;;;;;;;;4959769;28;20505;-59
2023/03/14 05:01:53;;;;;;;8.23;5.65;;;;;;;;;;4959051;28;20042;-59
2023/03/14 05:04:39;;;;;;;14.05;5.95;;;;;;;;;;4958447;28;20089;-58
2023/03/14 05:07:19;;;;;;;15.45;7.35;;;;;;;;;;4958406;28;20039;-58
2023/03/14 05:10:00;;;;;;;12.23;6.72;;;;;;;;;;4975578;28;20035;-59
2023/03/14 05:12:43;;;;;;;15.15;8.07;;;;;;;;;;4958315;28;20058;-58
2023/03/14 05:15:35;;;;;;;20.80;10.32;;;;;;;;;;4958378;28;20137;-58
2023/03/14 05:18:21;;;;;;;23.85;11.73;;;;;;;;;;4975737;28;20054;-58
2023/03/14 05:21:17;;;;;;;24.33;12.48;;;;;;;;;;4889669;28;20057;-59
2023/03/14 05:24:14;;;;;;;25.30;11.45;;;;;;;;;;4966396;28;20113;-59
2023/03/14 05:27:02;;;;;;;18.95;9.88;;;;;;;;;;4974577;28;20437;-58
2023/03/14 05:29:50;;;;;;;21.67;11.68;;;;;;;;;;4974650;28;20055;-58
2023/03/14 05:32:36;;;;;;;18.20;9.90;;;;;;;;;;4975378;28;20247;-59
2023/03/14 05:35:18;;;;;;;13.05;8.38;;;;;;;;;;4975381;28;20070;-58
2023/03/14 05:38:06;;;;;;;13.23;7.18;;;;;;;;;;4974995;28;20127;-58
2023/03/14 05:41:06;;;;;;;9.93;6.88;;;;;;;;;;4957728;28;20055;-58
2023/03/14 05:44:12;;;;;;;12.10;7.45;;;;;;;;;;4957956;28;20125;-58
2023/03/14 05:47:00;;;;;;;11.95;6.90;;;;;;;;;;4957512;28;20042;-58
2023/03/14 05:49:50;;;;;;;8.57;5.70;;;;;;;;;;4929669;28;20062;-59
2023/03/14 05:52:33;;;;;;;10.60;5.82;;;;;;;;;;4957472;28;20066;-59
2023/03/14 05:55:23;;;;;;;7.72;5.57;;;;;;;;;;4929690;28;20069;-60
2023/03/14 05:58:13;;;;;;;8.85;5.28;;;;;;;;;;4920808;28;20190;-60
2023/03/14 06:01:05;;;;;;;12.90;6.75;;;;;;;;;;4957373;28;20042;-60
2023/03/14 06:03:44;;;;;;;8.95;5.85;;;;;;;;;;4956725;28;20489;-60
2023/03/14 06:06:12;;;;;;;12.48;7.78;;;;;;;;;;4974612;28;20066;-60
2023/03/14 06:08:39;;;;;;;26.25;15.55;;;;;;;;;;4957335;28;20074;-60
2023/03/14 06:11:09;;;;;;;26.52;17.77;;;;;;;;;;4957253;28;20117;-60
2023/03/14 06:13:37;;;;;;;22.40;13.20;;;;;;;;;;4957218;28;20066;-60
2023/03/14 06:16:05;;;;;;;19.08;11.13;;;;;;;;;;4957124;28;20050;-60
2023/03/14 06:18:32;;;;;;;19.52;10.68;;;;;;;;;;4957146;28;20133;-60
2023/03/14 06:21:00;;;;;;;17.30;9.95;;;;;;;;;;4956978;28;20051;-60
2023/03/14 06:23:30;;;;;;;18.20;10.32;;;;;;;;;;4956511;28;20046;-58
2023/03/14 06:25:59;;;;;;;13.77;8.40;;;;;;;;;;4957122;28;20138;-58
2023/03/14 06:28:26;;;;;;;13.10;8.05;;;;;;;;;;4956936;28;20042;-58
2023/03/14 06:30:59;;;;;;;9.05;6.05;;;;;;;;;;4956892;28;20165;-58
2023/03/14 06:33:32;;;;;;;7.22;4.57;;;;;;;;;;4956855;28;20055;-58
2023/03/14 06:36:00;;;;;;;4.82;4.32;;;;;;;;;;4956811;28;20461;-59
2023/03/14 06:38:28;;;;;;;6.15;4.60;;;;;;;;;;4956731;28;20133;-59
2023/03/14 06:41:03;;;;;;;6.80;4.10;;;;;;;;;;4956750;28;20058;-59
2023/03/14 06:43:36;;;;;;;5.88;4.28;;;;;;;;;;4956725;28;20598;-59
2023/03/14 06:46:05;;;;;;;5.70;4.00;;;;;;;;;;4956655;28;20049;-59
2023/03/14 06:48:34;;;;;;;6.15;4.00;;;;;;;;;;4956495;28;20065;-59
2023/03/14 06:51:02;;;;;;;7.20;4.57;;;;;;;;;;4956661;28;20501;-60
2023/03/14 06:53:30;;;;;;;5.28;4.00;;;;;;;;;;4956649;28;20425;-59
2023/03/14 06:56:00;;;;;;;6.00;4.90;;;;;;;;;;4956599;28;20101;-59
2023/03/14 06:58:29;;;;;;;7.13;4.82;;;;;;;;;;4956657;28;20043;-59
2023/03/14 07:00:58;;;;;;;8.52;5.72;;;;;;;;;;4956584;28;20045;-59
2023/03/14 07:03:31;;;;;;;;;;;;;;;;;;4956958;28;20058;-59
2023/03/14 07:05:59;;;;;;;8.60;7.00;;;;;;;;;;4956579;28;19925;-59
2023/03/14 07:08:27;;;;;;;10.32;7.35;;;;;;;;;;4956453;28;20053;-59
2023/03/14 07:10:57;;;;;;;9.60;6.45;;;;;;;;;;4956522;28;20078;-59
2023/03/14 07:13:24;;;;;;;10.13;7.60;;;;;;;;;;4956237;28;20058;-59
2023/03/14 07:15:58;;;;;;;10.73;7.63;;;;;;;;;;4956331;28;20174;-59
2023/03/14 07:18:25;;;;;;;7.10;5.55;;;;;;;;;;4956180;28;20062;-59
2023/03/14 07:20:53;;;;;;;7.47;4.97;;;;;;;;;;4956340;28;20051;-60
2023/03/14 07:23:20;;;;;;;7.95;5.53;;;;;;;;;;4973587;28;20046;-59
2023/03/14 07:25:53;;;;;;;6.85;4.57;;;;;;;;;;4956516;28;20039;-60
2023/03/14 07:28:23;;;;;;;6.70;4.13;;;;;;;;;;4956152;28;20047;-59
2023/03/14 07:30:57;;;;;;;5.68;4.00;;;;;;;;;;4956254;28;20090;-59
2023/03/14 07:33:30;;;;;;;6.57;4.97;;;;;;;;;;4956814;28;20042;-58
2023/03/14 07:35:57;;;;;;;8.15;5.30;;;;;;;;;;4960048;28;20074;-59
2023/03/14 07:38:25;;;;;;;7.05;4.38;;;;;;;;;;4959938;28;20497;-60
2023/03/14 07:41:15;;;;;;;7.63;3.90;;;;;;;;;;4976190;28;20050;-59
2023/03/14 07:44:03;;;;;;;6.15;4.20;;;;;;;;;;4976628;28;20050;-59
2023/03/14 07:46:30;;;;;;;10.77;4.65;;;;;;;;;;4977181;28;20098;-59
2023/03/14 07:48:58;;;;;;;7.45;4.60;;;;;;;;;;4977506;28;20501;-59
2023/03/14 07:51:25;;;;;;;8.27;4.28;;;;;;;;;;4959701;28;20511;-58
2023/03/14 07:53:53;;;;;;;7.55;5.03;;;;;;;;;;4959892;28;20089;-58
2023/03/14 07:56:20;;;;;;;9.75;4.88;;;;;;;;;;4976988;28;20061;-59
2023/03/14 07:58:48;;;;;;;10.70;4.85;;;;;;;;;;4959499;28;20187;-59
2023/03/14 08:01:15;;;;;;;10.25;4.88;;;;;;;;;;4976930;28;20069;-59
2023/03/14 08:03:43;;;;;;;8.45;4.75;;;;;;;;;;4977337;28;20101;-58
2023/03/14 08:06:10;;;;;;;8.43;4.38;;;;;;;;;;4976866;28;20067;-59
2023/03/14 08:08:38;;;;;;;4.60;3.70;;;;;;;;;;4976851;28;20043;-58
2023/03/14 08:11:08;;;;;;;5.40;3.90;;;;;;;;;;4976815;28;20043;-58
2023/03/14 08:13:36;;;;;;;5.97;4.07;;;;;;;;;;4976744;28;20042;-59
2023/03/14 08:16:04;;;;;;;7.53;4.90;;;;;;;;;;4976552;28;20043;-59
2023/03/14 08:18:32;;;;;;;8.98;4.28;;;;;;;;;;4976688;28;20422;-58
2023/03/14 08:21:00;;;;;;;8.02;4.28;;;;;;;;;;4976687;28;20043;-59
2023/03/14 08:23:27;;;;;;;8.05;4.10;;;;;;;;;;4976650;28;20498;-58
2023/03/14 08:25:55;;;;;;;6.75;3.90;;;;;;;;;;4976860;28;20031;-58
2023/03/14 08:28:22;;;;;;;6.57;3.90;;;;;;;;;;4976753;28;20122;-58
2023/03/14 08:30:50;;;;;;;5.22;3.45;;;;;;;;;;4976549;28;20043;-58
2023/03/14 08:33:17;;;;;;;6.18;3.88;;;;;;;;;;4976434;28;20490;-60
2023/03/14 08:35:45;;;;;;;5.72;3.88;;;;;;;;;;4976742;28;20473;-58
2023/03/14 08:38:12;;;;;;;6.15;4.20;;;;;;;;;;4976252;28;20127;-58
2023/03/14 08:40:40;;;;;;;8.93;4.00;;;;;;;;;;4976449;28;20062;-58
2023/03/14 08:43:07;;;;;;;7.63;4.20;;;;;;;;;;4976534;28;20050;-59
2023/03/14 08:45:35;;;;;;;5.97;3.55;;;;;;;;;;4975806;28;20049;-60
2023/03/14 08:48:02;;;;;;;6.15;3.95;;;;;;;;;;4976180;28;20043;-58
2023/03/14 08:50:30;;;;;;;8.10;4.72;;;;;;;;;;4976221;28;20397;-58
2023/03/14 08:52:59;;;;;;;5.28;3.75;;;;;;;;;;4975930;28;20043;-58
2023/03/14 08:55:27;;;;;;;6.60;3.38;;;;;;;;;;4976051;28;20511;-60
2023/03/14 08:57:54;;;;;;;6.32;4.03;;;;;;;;;;4975923;28;20444;-59
2023/03/14 09:00:22;;;;;;;6.10;4.07;;;;;;;;;;4975962;28;20400;-60
2023/03/14 09:02:50;;;;;;;6.80;3.85;;;;;;;;;;4975904;28;20046;-58
2023/03/14 09:05:18;;;;;;;7.05;3.92;;;;;;;;;;4975839;28;20054;-59
2023/03/14 09:07:46;;;;;;;5.28;3.65;;;;;;;;;;4975798;28;20050;-58
2023/03/14 09:10:13;;;;;;;7.57;4.03;;;;;;;;;;4975741;28;20070;-58
2023/03/14 09:12:41;;;;;;;5.72;4.03;;;;;;;;;;4975658;28;20047;-59
2023/03/14 09:15:09;;;;;;;6.65;4.10;;;;;;;;;;4975636;28;20067;-58
2023/03/14 09:17:36;;;;;;;6.20;4.07;;;;;;;;;;4975574;28;20091;-59
2023/03/14 09:20:08;;;;;;;7.40;4.28;;;;;;;;;;4975395;28;20078;-58
2023/03/14 09:22:36;;;;;;;6.20;4.03;;;;;;;;;;4975715;28;20122;-59
2023/03/14 09:25:04;;;;;;;6.03;4.20;;;;;;;;;;4975371;28;20067;-59
2023/03/14 09:27:31;;;;;;;7.03;4.30;;;;;;;;;;4975329;28;20122;-59
2023/03/14 09:29:59;;;;;;;8.75;4.20;;;;;;;;;;4975394;28;20039;-58
2023/03/14 09:32:26;;;;;;;7.65;4.25;;;;;;;;;;4975555;28;20062;-59
2023/03/14 09:34:54;;;;;;;6.68;4.38;;;;;;;;;;4975589;28;20079;-60
2023/03/14 09:37:21;;;;;;;8.95;4.88;;;;;;;;;;4975203;28;20489;-59
2023/03/14 09:39:49;;;;;;;7.18;4.70;;;;;;;;;;4975237;28;20486;-60
2023/03/14 09:42:22;;;;;;;7.65;4.65;;;;;;;;;;4975406;28;20449;-60
2023/03/14 09:45:05;;;;;;;5.68;3.95;;;;;;;;;;4975341;28;20074;-60
2023/03/14 09:47:34;;;;;;;6.55;3.90;;;;;;;;;;4975214;28;20054;-60
2023/03/14 09:50:06;;;;;;;7.60;4.55;;;;;;;;;;4975179;28;20042;-58
2023/03/14 09:52:37;;;;;;;6.38;4.47;;;;;;;;;;4974905;28;20512;-60
2023/03/14 09:55:23;;;;;;;10.05;7.28;;;;;;;;;;4974824;28;20118;-59
2023/03/14 09:57:53;;;;;;;6.55;4.57;;;;;;;;;;4973919;28;20493;-59
2023/03/14 10:00:25;;;;;;;7.50;4.97;;;;;;;;;;4975112;28;20042;-59
2023/03/14 10:02:53;;;;;;;8.30;3.63;;;;;;;;;;4974788;28;20043;-59
2023/03/14 10:05:22;;;;;;;5.25;3.45;;;;;;;;;;4975011;28;20417;-59
2023/03/14 10:07:49;;;;;;;5.15;3.50;;;;;;;;;;4974550;28;20039;-58
2023/03/14 10:10:21;;;;;;;5.97;4.10;;;;;;;;;;4974662;28;20039;-59
2023/03/14 10:12:55;;;;;;;6.10;3.95;;;;;;;;;;4974557;28;20047;-58
2023/03/14 10:15:33;;;;;;;7.55;4.85;;;;;;;;;;4974595;28;20077;-59
2023/03/14 10:18:02;;;;;;;9.32;4.75;;;;;;;;;;4957218;28;20411;-60
2023/03/14 10:20:55;;;;;;;6.55;4.32;;;;;;;;;;4974493;28;20070;-59
2023/03/14 10:23:25;;;;;;;6.75;4.20;;;;;;;;;;4945540;28;20065;-59
2023/03/14 10:26:00;;;;;;;4.43;3.20;;;;;;;;;;4974571;28;20089;-59
2023/03/14 10:28:33;;;;;;;7.07;4.10;;;;;;;;;;4974404;28;20050;-60
2023/03/14 10:31:01;;;;;;;4.43;3.58;;;;;;;;;;4974532;28;20078;-60
2023/03/14 10:33:30;;;;;;;9.10;6.43;;;;;;;;;;4974686;28;20556;-58
2023/03/14 10:36:05;;;;;;;6.15;3.40;;;;;;;;;;4974384;28;20486;-58
2023/03/14 10:38:37;;;;;;;6.70;4.18;;;;;;;;;;4974228;28;20082;-59
2023/03/14 10:41:16;;;;;;;6.20;3.35;;;;;;;;;;4974069;28;20039;-59
2023/03/14 10:43:43;;;;;;;6.93;4.75;;;;;;;;;;4974027;28;20047;-59
2023/03/14 10:46:17;;;;;;;8.68;3.60;;;;;;;;;;4974096;28;20046;-59
2023/03/14 10:49:06;;;;;;;7.05;4.47;;;;;;;;;;4974108;28;20062;-59
2023/03/14 10:51:33;;;;;;;5.95;3.13;;;;;;;;;;4966671;28;20034;-59
2023/03/14 10:54:01;;;;;;;4.70;3.47;;;;;;;;;;4974068;28;20097;-59
2023/03/14 10:56:34;;;;;;;6.50;3.67;;;;;;;;;;4974051;28;20039;-59
2023/03/14 10:59:03;;;;;;;5.82;3.65;;;;;;;;;;4974041;28;20070;-59
2023/03/14 11:01:32;;;;;;;8.77;4.47;;;;;;;;;;4973925;28;20073;-59
2023/03/14 11:04:04;;;;;;;4.93;3.40;;;;;;;;;;4956703;28;20046;-59
2023/03/14 11:06:49;;;;;;;6.38;3.65;;;;;;;;;;4974027;28;20401;-59
2023/03/14 11:09:22;;;;;;;7.28;4.38;;;;;;;;;;4973488;28;20078;-58
2023/03/14 11:11:49;;;;;;;8.52;5.20;;;;;;;;;;4973749;28;20489;-60
2023/03/14 11:14:32;;;;;;;4.57;3.35;;;;;;;;;;4974183;28;20089;-58
2023/03/14 11:17:08;;;;;;;11.18;4.65;;;;;;;;;;4973631;28;20045;-59
2023/03/14 11:19:45;;;;;;;9.75;6.82;;;;;;;;;;4973455;28;20050;-59
2023/03/14 11:22:33;;;;;;;7.20;4.57;;;;;;;;;;4974172;28;20042;-58
2023/03/14 11:25:00;;;;;;;4.32;2.70;;;;;;;;;;4973584;28;20078;-58
2023/03/14 11:27:37;;;;;;;7.10;3.38;;;;;;;;;;4956483;28;20047;-60
2023/03/14 11:30:13;;;;;;;4.88;3.40;;;;;;;;;;4973463;28;20058;-58
2023/03/14 11:32:41;;;;;;;3.83;2.88;;;;;;;;;;4973266;28;20039;-60
2023/03/14 11:35:16;;;;;;;4.57;2.70;;;;;;;;;;4973462;28;20039;-59
2023/03/14 11:37:48;;;;;;;4.32;2.80;;;;;;;;;;4973439;28;20580;-60
2023/03/14 11:40:19;;;;;;;4.07;2.60;;;;;;;;;;4973480;28;20043;-59
2023/03/14 11:42:50;;;;;;;3.88;2.53;;;;;;;;;;4973417;28;20049;-59
2023/03/14 11:45:20;;;;;;;4.22;2.20;;;;;;;;;;4973390;28;20046;-59
2023/03/14 11:47:53;;;;;;;13.05;9.20;;;;;;;;;;4973292;28;20035;-60
2023/03/14 11:50:21;;;;;;;6.68;5.70;;;;;;;;;;4973370;28;20421;-58
2023/03/14 11:52:51;;;;;;;2.88;2.40;;;;;;;;;;4973430;28;20078;-59
2023/03/14 11:55:25;;;;;;;3.88;2.58;;;;;;;;;;4973825;28;20079;-60
2023/03/14 11:57:56;;;;;;;4.30;2.72;;;;;;;;;;4973209;28;20042;-59
2023/03/14 12:00:24;;;;;;;3.72;2.67;;;;;;;;;;4973190;28;20130;-59
2023/03/14 12:02:58;;;;;;;4.05;2.40;;;;;;;;;;4973255;28;20109;-59
2023/03/14 12:05:25;;;;;;;3.20;2.28;;;;;;;;;;4972914;28;20318;-59
2023/03/14 12:08:08;;;;;;;4.10;2.00;;;;;;;;;;4972972;28;20050;-59
2023/03/14 12:10:40;;;;;;;9.65;7.22;;;;;;;;;;4973290;28;20404;-59
2023/03/14 12:13:10;;;;;;;8.13;6.22;;;;;;;;;;4973235;28;20548;-59
2023/03/14 12:15:43;;;;;;;6.43;4.60;;;;;;;;;;4972881;28;20047;-60
2023/03/14 12:18:22;;;;;;;7.72;4.53;;;;;;;;;;4973066;28;20043;-60
2023/03/14 12:20:58;;;;;;;3.92;2.50;;;;;;;;;;4974061;28;20055;-60
2023/03/14 12:23:26;;;;;;;5.35;2.83;;;;;;;;;;4976992;28;20043;-59
2023/03/14 12:26:12;;;;;;;7.05;4.20;;;;;;;;;;4976576;28;20042;-59
2023/03/14 12:28:43;;;;;;;6.32;2.90;;;;;;;;;;4976484;28;20045;-59
2023/03/14 12:31:29;;;;;;;3.33;1.92;;;;;;;;;;4976402;28;20038;-60
2023/03/14 12:34:04;;;;;;;4.05;2.78;;;;;;;;;;4959061;28;20149;-60
2023/03/14 12:36:53;;;;;;;4.35;2.72;;;;;;;;;;4976463;28;20041;-60
2023/03/14 12:39:21;;;;;;;8.55;5.03;;;;;;;;;;4959010;28;20173;-60
2023/03/14 12:41:52;;;;;;;3.55;2.40;;;;;;;;;;4976580;28;20042;-60
2023/03/14 12:44:29;;;;;;;3.70;2.40;;;;;;;;;;4976167;28;20077;-60
2023/03/14 12:47:00;;;;;;;5.72;3.30;;;;;;;;;;4976408;28;20101;-59
2023/03/14 12:49:32;;;;;;;5.18;2.53;;;;;;;;;;4975929;28;20508;-60
2023/03/14 12:52:01;;;;;;;6.63;2.35;;;;;;;;;;4976203;28;20046;-59
2023/03/14 12:54:43;;;;;;;2.83;2.17;;;;;;;;;;4976215;28;20046;-59
2023/03/14 12:57:26;;;;;;;7.78;3.47;;;;;;;;;;4976271;28;20041;-60
2023/03/14 13:00:00;;;;;;;4.50;2.80;;;;;;;;;;4976127;28;20043;-60
2023/03/14 13:02:48;;;;;;;4.22;3.00;;;;;;;;;;4976384;28;20094;-60
2023/03/14 13:05:18;;;;;;;4.88;2.45;;;;;;;;;;4975964;28;20093;-60
2023/03/14 13:07:49;;;;;;;4.47;2.13;;;;;;;;;;4975887;28;20047;-60
2023/03/14 13:10:21;;;;;;;4.25;2.30;;;;;;;;;;4975649;28;20053;-60
2023/03/14 13:12:51;;;;;;;4.63;2.58;;;;;;;;;;4975468;28;20054;-59
2023/03/14 13:15:24;;;;;;;6.47;2.30;;;;;;;;;;4975702;28;20109;-59
2023/03/14 13:17:52;;;;;;;6.97;3.00;;;;;;;;;;4975747;28;20042;-60
2023/03/14 13:20:43;;;;;;;5.38;2.65;;;;;;;;;;4975407;28;20043;-60
2023/03/14 13:23:40;;;;;;;3.45;2.40;;;;;;;;;;4965918;28;20401;-60
2023/03/14 13:26:13;;;;;;;5.07;2.97;;;;;;;;;;4959564;28;20505;-60
2023/03/14 13:28:42;;;;;;;5.03;3.28;;;;;;;;;;4975699;28;20071;-60
2023/03/14 13:31:22;;;;;;;3.60;2.67;;;;;;;;;;4975094;28;20047;-60
2023/03/14 13:33:59;;;;;;;2.10;1.90;;;;;;;;;;4975459;28;20035;-60
2023/03/14 13:36:27;;;;;;;3.30;1.80;;;;;;;;;;4975564;28;20401;-60
2023/03/14 13:38:58;;;;;;;3.55;2.22;;;;;;;;;;4975354;28;20580;-60
2023/03/14 13:41:26;;;;;;;3.25;1.90;;;;;;;;;;4975157;28;20043;-60
2023/03/14 13:43:58;;;;;;;3.78;2.00;;;;;;;;;;4974170;28;20495;-60
2023/03/14 13:46:26;;;;;;;3.25;1.80;;;;;;;;;;4987576;28;20034;-59
2023/03/14 13:48:58;;;;;;;5.03;2.38;;;;;;;;;;4976846;28;20101;-60
2023/03/14 13:51:29;;;;;;;6.05;3.08;;;;;;;;;;4994197;28;20042;-60
2023/03/14 13:53:56;;;;;;;6.13;4.00;;;;;;;;;;4994582;28;20051;-60
2023/03/14 13:56:27;;;;;;;4.55;2.97;;;;;;;;;;4994227;28;20038;-60
2023/03/14 13:58:55;;;;;;;6.13;3.00;;;;;;;;;;4993864;28;20097;-59
2023/03/14 14:01:33;;;;;;;5.18;3.72;;;;;;;;;;4993874;28;20485;-59
2023/03/14 14:04:15;;;;;;;5.85;3.08;;;;;;;;;;4976773;28;20065;-60
2023/03/14 14:06:51;;;;;;;5.53;3.70;;;;;;;;;;4993970;28;20567;-60
2023/03/14 14:09:24;;;;;;;10.15;6.38;;;;;;;;;;4993987;28;20464;-60
2023/03/14 14:11:52;;;;;;;4.45;2.97;;;;;;;;;;4993996;28;20382;-60
2023/03/14 14:14:41;;;;;;;5.72;4.13;;;;;;;;;;4993236;28;20046;-60
2023/03/14 14:17:19;;;;;;;7.90;6.03;;;;;;;;;;4992006;28;20035;-60
2023/03/14 14:19:47;;;;;;;14.95;11.55;;;;;;;;;;4992241;28;20062;-60
2023/03/14 14:22:15;;;;;;;8.18;4.30;;;;;;;;;;4975949;28;20452;-60
2023/03/14 14:24:42;;;;;;;6.22;2.60;;;;;;;;;;4993624;28;20050;-60
2023/03/14 14:27:14;;;;;;;4.85;2.40;;;;;;;;;;4993237;28;20097;-60
2023/03/14 14:29:42;;;;;;;4.07;2.13;;;;;;;;;;4993202;28;20042;-60
2023/03/14 14:32:09;;;;;;;3.50;1.98;;;;;;;;;;4993772;28;20507;-59
2023/03/14 14:34:50;;;;;;;4.50;2.40;;;;;;;;;;4994075;28;20050;-60
2023/03/14 14:37:21;;;;;;;5.50;2.95;;;;;;;;;;4993648;28;20476;-60
2023/03/14 14:39:49;;;;;;;5.75;3.60;;;;;;;;;;4993613;28;20047;-60
2023/03/14 14:42:17;;;;;;;6.32;3.10;;;;;;;;;;4993851;28;20463;-60
2023/03/14 14:44:45;;;;;;;6.18;3.95;;;;;;;;;;4992979;28;20042;-60
2023/03/14 14:47:13;;;;;;;6.57;3.40;;;;;;;;;;4993801;28;20053;-60
2023/03/14 14:49:41;;;;;;;6.57;5.25;;;;;;;;;;4993460;28;20505;-60
2023/03/14 14:52:15;;;;;;;8.25;5.15;;;;;;;;;;4993288;28;20034;-60
2023/03/14 14:54:56;;;;;;;9.60;4.93;;;;;;;;;;4993447;28;20074;-60
2023/03/14 14:57:30;;;;;;;7.03;3.75;;;;;;;;;;4993518;28;20039;-60
2023/03/14 15:00:03;;;;;;;6.05;3.50;;;;;;;;;;4976147;28;20448;-59
2023/03/14 15:02:43;;;;;;;10.00;5.35;;;;;;;;;;4993267;28;20061;-60
2023/03/14 15:05:15;;;;;;;9.57;5.55;;;;;;;;;;4993234;28;20034;-60
2023/03/14 15:07:42;;;;;;;10.50;5.00;;;;;;;;;;4993043;28;20044;-60